createdAt,value
2019-05-21T00:01:34.792Z,91.92
2019-05-21T00:06:41.075Z,91.91
2019-05-21T00:11:46.380Z,91.91
2019-05-21T00:16:52.038Z,91.67
2019-05-21T00:21:57.349Z,91.60
2019-05-21T00:27:02.640Z,91.21
2019-05-21T00:32:43.777Z,91.19
2019-05-21T00:38:25.015Z,91.24
2019-05-21T00:43:41.036Z,91.24
2019-05-21T00:48:46.384Z,91.07
2019-05-21T00:53:51.659Z,91.02
2019-05-21T00:58:57.196Z,91.29
2019-05-21T01:04:02.707Z,90.97
2019-05-21T01:09:09.098Z,91.15
2019-05-21T01:14:14.607Z,91.10
2019-05-21T01:19:19.853Z,91.32
2019-05-21T01:24:25.145Z,91.64
2019-05-21T01:29:30.432Z,91.83
2019-05-21T01:34:35.860Z,91.84
2019-05-21T01:39:42.444Z,91.97
2019-05-21T01:44:47.693Z,91.52
2019-05-21T01:49:52.982Z,91.31
2019-05-21T01:54:58.319Z,91.35
2019-05-21T02:00:03.815Z,91.49
2019-05-21T02:05:09.142Z,91.47
2019-05-21T02:10:14.676Z,91.89
2019-05-21T02:15:19.922Z,91.71
2019-05-21T02:20:25.506Z,91.34
2019-05-21T02:30:30.000Z,91.11
2019-05-21T02:35:52.841Z,91.03
2019-05-21T02:40:42.934Z,91.23
2019-05-21T02:45:49.148Z,91.24
2019-05-21T02:50:54.511Z,91.06
2019-05-21T02:55:59.992Z,91.06
2019-05-21T03:01:21.801Z,91.09
2019-05-21T03:06:27.061Z,90.89
2019-05-21T03:11:32.284Z,91.23
2019-05-21T03:16:38.592Z,91.14
2019-05-21T03:21:43.930Z,91.32
2019-05-21T03:26:49.195Z,90.84
2019-05-21T03:31:54.474Z,90.97
2019-05-21T03:37:00.092Z,91.09
2019-05-21T03:42:05.347Z,91.23
2019-05-21T03:47:11.784Z,91.15
2019-05-21T03:52:16.991Z,91.29
2019-05-21T03:57:22.278Z,90.99
2019-05-21T04:02:27.498Z,91.20
2019-05-21T04:07:32.834Z,91.14
2019-05-21T04:12:38.106Z,90.73
2019-05-21T04:18:07.025Z,90.48
2019-05-21T04:23:12.457Z,90.70
2019-05-21T04:28:17.681Z,90.38
2019-05-21T04:33:23.040Z,90.29
2019-05-21T04:38:28.740Z,90.63
2019-05-21T04:43:33.975Z,90.39
2019-05-21T04:48:39.585Z,90.47
2019-05-21T04:53:44.945Z,91.12
2019-05-21T04:58:50.178Z,91.03
2019-05-21T05:03:55.449Z,91.35
2019-05-21T05:09:00.692Z,91.98
2019-05-21T05:14:07.689Z,91.68
2019-05-21T05:19:12.932Z,91.94
2019-05-21T05:24:18.474Z,91.83
2019-05-21T05:29:23.921Z,91.95
2019-05-21T05:34:29.290Z,91.87
2019-05-21T05:39:34.877Z,91.85
2019-05-21T05:44:40.187Z,91.82
2019-05-21T05:49:48.911Z,92.08
2019-05-21T05:54:54.234Z,92.38
2019-05-21T05:59:59.523Z,92.33
2019-05-21T06:05:05.417Z,92.71
2019-05-21T06:10:10.978Z,92.50
2019-05-21T06:15:16.653Z,92.56
2019-05-21T06:20:22.243Z,92.17
2019-05-21T06:25:27.495Z,92.01
2019-05-21T06:30:32.756Z,91.55
2019-05-21T06:35:37.994Z,91.62
2019-05-21T06:40:43.310Z,91.02
2019-05-21T06:45:49.617Z,91.00
2019-05-21T06:50:54.915Z,91.01
2019-05-21T06:56:00.230Z,90.87
2019-05-21T07:01:05.456Z,90.79
2019-05-21T07:06:10.693Z,90.76
2019-05-21T07:11:15.909Z,90.81
2019-05-21T07:16:21.141Z,90.95
2019-05-21T07:21:26.390Z,90.37
2019-05-21T07:26:32.299Z,90.18
2019-05-21T07:31:37.977Z,90.15
2019-05-21T07:36:43.289Z,90.17
2019-05-21T07:41:48.665Z,90.14
2019-05-21T07:46:53.972Z,90.35
2019-05-21T07:51:59.205Z,90.02
2019-05-21T07:57:05.233Z,89.96
2019-05-21T08:02:10.459Z,89.92
2019-05-21T08:07:15.709Z,89.74
2019-05-21T08:12:37.349Z,89.80
2019-05-21T08:17:27.900Z,89.59
2019-05-21T08:22:33.627Z,89.86
2019-05-21T08:27:38.857Z,89.85
2019-05-21T08:32:44.477Z,89.58
2019-05-21T08:37:49.969Z,89.59
2019-05-21T08:42:55.235Z,89.30
2019-05-21T08:48:00.551Z,89.05
2019-05-21T08:53:06.006Z,89.27
2019-05-21T08:58:11.610Z,88.95
2019-05-21T09:03:16.834Z,88.60
2019-05-21T09:08:22.127Z,88.67
2019-05-21T09:13:27.708Z,88.92
2019-05-21T09:18:33.019Z,88.53
2019-05-21T09:23:39.396Z,88.70
2019-05-21T09:28:45.008Z,88.81
2019-05-21T09:33:50.261Z,88.74
2019-05-21T09:38:55.542Z,88.65
2019-05-21T09:44:00.866Z,88.18
2019-05-21T09:49:06.149Z,88.38
2019-05-21T09:54:11.645Z,88.15
2019-05-21T09:59:39.258Z,88.20
2019-05-21T10:04:44.832Z,88.11
2019-05-21T10:09:50.052Z,87.81
2019-05-21T10:14:55.552Z,88.35
2019-05-21T10:20:00.769Z,88.41
2019-05-21T10:25:06.643Z,88.64
2019-05-21T10:30:12.743Z,88.60
2019-05-21T10:35:18.006Z,88.89
2019-05-21T10:40:23.277Z,88.73
2019-05-21T10:45:28.589Z,88.23
2019-05-21T10:50:33.927Z,88.08
2019-05-21T10:55:39.251Z,88.13
2019-05-21T11:00:46.270Z,88.28
2019-05-21T11:06:09.027Z,88.08
2019-05-21T11:11:01.127Z,88.45
2019-05-21T11:16:06.703Z,88.69
2019-05-21T11:21:12.076Z,88.25
2019-05-21T11:26:17.341Z,89.22
2019-05-21T11:31:22.656Z,89.51
2019-05-21T11:36:28.227Z,89.46
2019-05-21T11:41:33.955Z,90.09
2019-05-21T11:46:39.205Z,90.01
2019-05-21T11:51:44.725Z,90.11
2019-05-21T11:56:50.240Z,90.83
2019-05-21T12:01:55.538Z,90.71
2019-05-21T12:07:03.228Z,90.76
2019-05-21T12:12:07.852Z,90.11
2019-05-21T12:17:13.121Z,90.64
2019-05-21T12:22:18.377Z,90.55
2019-05-21T12:27:24.440Z,90.21
2019-05-21T12:32:29.789Z,90.12
2019-05-21T12:37:35.054Z,90.18
2019-05-21T12:42:40.363Z,89.82
2019-05-21T12:47:45.630Z,89.67
2019-05-21T12:52:51.014Z,89.80
2019-05-21T12:57:56.366Z,89.91
2019-05-21T13:03:02.970Z,89.60
2019-05-21T13:08:08.288Z,89.54
2019-05-21T13:13:13.565Z,89.43
2019-05-21T13:18:18.836Z,89.52
2019-05-21T13:23:24.099Z,89.49
2019-05-21T13:28:29.397Z,88.88
2019-05-21T13:33:34.673Z,89.03
2019-05-21T13:38:40.061Z,88.93
2019-05-21T13:43:45.535Z,88.81
2019-05-21T13:48:52.147Z,88.85
2019-05-21T13:53:57.501Z,88.73
2019-05-21T13:59:02.809Z,89.20
2019-05-21T14:04:08.624Z,88.98
2019-05-21T14:09:14.027Z,89.06
2019-05-21T14:14:19.639Z,88.89
2019-05-21T14:19:24.962Z,88.74
2019-05-21T14:24:30.273Z,89.14
2019-05-21T14:29:35.954Z,89.04
2019-05-21T14:34:41.060Z,88.78
2019-05-21T14:39:47.101Z,89.14
2019-05-21T14:44:53.235Z,89.07
2019-05-21T14:49:58.596Z,88.82
2019-05-21T14:55:04.445Z,88.61
2019-05-21T15:00:20.213Z,88.80
2019-05-21T15:05:26.332Z,88.87
2019-05-21T15:10:47.316Z,88.82
2019-05-21T15:15:40.433Z,88.43
2019-05-21T15:21:04.142Z,88.60
2019-05-21T15:26:09.716Z,89.20
2019-05-21T15:31:14.912Z,89.38
2019-05-21T15:36:20.590Z,89.26
2019-05-21T15:41:25.906Z,89.08
2019-05-21T15:46:47.233Z,89.10
2019-05-21T15:51:38.699Z,89.48
2019-05-21T15:56:43.955Z,89.59
2019-05-21T16:01:49.371Z,89.63
2019-05-21T16:06:54.605Z,89.76
2019-05-21T16:12:00.131Z,89.80
2019-05-21T16:17:06.116Z,89.53
2019-05-21T16:22:11.412Z,89.82
2019-05-21T16:27:19.461Z,89.58
2019-05-21T16:32:25.244Z,89.42
2019-05-21T16:37:31.648Z,89.44
2019-05-21T16:42:37.283Z,89.64
2019-05-21T16:47:46.202Z,89.54
2019-05-21T16:52:50.681Z,89.70
2019-05-21T16:57:56.820Z,89.28
2019-05-21T17:03:02.374Z,89.31
2019-05-21T17:08:08.052Z,89.41
2019-05-21T17:13:13.855Z,89.18
2019-05-21T17:18:19.517Z,89.12
2019-05-21T17:23:24.747Z,89.36
2019-05-21T17:28:30.449Z,89.36
2019-05-21T17:33:36.024Z,89.36
2019-05-21T17:38:41.975Z,89.38
2019-05-21T17:43:47.640Z,89.47
2019-05-21T17:48:53.175Z,89.52
2019-05-21T17:53:59.237Z,89.24
2019-05-21T17:59:04.559Z,88.76
2019-05-21T18:04:10.099Z,88.65
2019-05-21T18:09:17.007Z,88.91
2019-05-21T18:14:23.967Z,88.59
2019-05-21T18:19:30.396Z,88.62
2019-05-21T18:24:35.847Z,88.95
2019-05-21T18:29:41.276Z,88.52
2019-05-21T18:34:46.584Z,88.71
2019-05-21T18:39:54.340Z,88.82
2019-05-21T18:44:59.882Z,88.75
2019-05-21T18:50:05.773Z,88.63
2019-05-21T18:55:12.253Z,88.65
2019-05-21T19:00:20.240Z,88.72
2019-05-21T19:05:25.741Z,88.72
2019-05-21T19:10:31.680Z,89.06
2019-05-21T19:15:38.006Z,88.91
2019-05-21T19:20:44.731Z,88.94
2019-05-21T19:25:50.974Z,88.52
2019-05-21T19:30:58.306Z,88.61
2019-05-21T19:36:03.633Z,88.84
2019-05-21T19:41:08.961Z,88.70
2019-05-21T19:46:14.676Z,88.52
2019-05-21T19:51:20.094Z,88.65
2019-05-21T19:56:25.695Z,88.71
2019-05-21T20:01:32.006Z,88.87
2019-05-21T20:06:39.022Z,88.39
2019-05-21T20:11:44.741Z,88.55
2019-05-21T20:16:51.114Z,88.57
2019-05-21T20:21:58.236Z,88.58
2019-05-21T20:27:05.631Z,88.62
2019-05-21T20:32:16.210Z,88.43
2019-05-21T20:37:26.517Z,88.22
2019-05-21T20:42:32.622Z,88.33
2019-05-21T20:47:38.614Z,88.54
2019-05-21T20:52:45.004Z,88.49
2019-05-21T20:57:50.787Z,88.45
2019-05-21T21:02:57.369Z,88.65
2019-05-21T21:08:03.621Z,88.45
2019-05-21T21:13:11.472Z,88.60
2019-05-21T21:18:18.372Z,88.44
2019-05-21T21:23:25.680Z,88.56
2019-05-21T21:28:31.773Z,88.35
2019-05-21T21:33:38.173Z,88.36
2019-05-21T21:38:44.843Z,88.20
2019-05-21T21:43:50.293Z,88.41
2019-05-21T21:48:56.036Z,88.60
2019-05-21T21:54:02.624Z,88.58
2019-05-21T21:59:08.379Z,88.91
2019-05-21T22:04:16.510Z,89.02
2019-05-21T22:09:33.672Z,89.18
2019-05-21T22:14:50.430Z,88.97
2019-05-21T22:19:51.715Z,88.89
2019-05-21T22:24:57.321Z,88.55
2019-05-21T22:30:02.734Z,88.04
2019-05-21T22:35:08.408Z,88.46
2019-05-21T22:40:14.409Z,88.30
2019-05-21T22:45:19.810Z,88.34
2019-05-21T22:50:25.824Z,88.78
2019-05-21T22:55:31.041Z,89.26
2019-05-21T23:02:28.855Z,89.90
2019-05-21T23:07:34.124Z,89.56
2019-05-21T23:12:39.558Z,89.65
2019-05-21T23:17:45.191Z,89.00
2019-05-21T23:23:01.184Z,88.86
2019-05-21T23:28:08.227Z,88.49
2019-05-21T23:33:14.303Z,88.63
2019-05-21T23:38:20.348Z,88.29
2019-05-21T23:43:26.460Z,88.61
2019-05-21T23:48:32.101Z,88.47
2019-05-21T23:53:38.333Z,88.76
2019-05-21T23:58:43.973Z,88.45
